Time;durP1;ratioP1;P1;durP2;ratioP2;P2;SDS_P1;SDS_P2;PMS_P1;PMS_P2;Temp;Humidity;BMP_temperature;BMP_pressure;BME280_temperature;BME280_humidity;BME280_pressure;Samples;Min_cycle;Max_cycle;Signal;HPM_P1;HPM_P2
2022/11/22 00:02:25;;;;;;;2.17;2.07;;;;;;;;;;5004083;28;20793;-48
2022/11/22 00:04:51;;;;;;;3.60;2.17;;;;;;;;;;5003856;28;20412;-48
2022/11/22 00:07:17;;;;;;;3.97;2.60;;;;;;;;;;5011527;28;20457;-48
2022/11/22 00:09:43;;;;;;;2.03;1.70;;;;;;;;;;5006966;28;20412;-48
2022/11/22 00:12:09;;;;;;;2.43;2.07;;;;;;;;;;5001260;28;20452;-48
2022/11/22 00:14:35;;;;;;;3.40;1.83;;;;;;;;;;5003599;28;20463;-48
2022/11/22 00:17:01;;;;;;;6.20;2.23;;;;;;;;;;5003675;28;20406;-48
2022/11/22 00:19:27;;;;;;;5.60;2.37;;;;;;;;;;5006707;28;20411;-48
2022/11/22 00:21:53;;;;;;;7.70;2.20;;;;;;;;;;5008025;28;20504;-48
2022/11/22 00:24:19;;;;;;;5.10;2.20;;;;;;;;;;5007639;28;20496;-48
2022/11/22 00:26:44;;;;;;;3.00;2.13;;;;;;;;;;5003556;28;20423;-48
2022/11/22 00:29:12;;;;;;;2.53;2.33;;;;;;;;;;5006622;28;20416;-48
2022/11/22 00:31:38;;;;;;;4.00;2.00;;;;;;;;;;5006530;28;20501;-48
2022/11/22 00:34:04;;;;;;;3.60;2.20;;;;;;;;;;5004276;28;20875;-48
2022/11/22 00:36:30;;;;;;;3.27;2.27;;;;;;;;;;5003094;28;21071;-48
2022/11/22 00:38:56;;;;;;;4.80;1.70;;;;;;;;;;5003169;28;20422;-48
2022/11/22 00:41:22;;;;;;;2.50;2.20;;;;;;;;;;5005700;28;20411;-48
2022/11/22 00:43:48;;;;;;;5.30;2.30;;;;;;;;;;5001974;28;20462;-48
2022/11/22 00:46:14;;;;;;;2.23;1.97;;;;;;;;;;5004913;28;20502;-49
2022/11/22 00:48:40;;;;;;;2.30;2.20;;;;;;;;;;5005863;28;20792;-48
2022/11/22 00:51:06;;;;;;;5.73;2.47;;;;;;;;;;5005993;28;20421;-48
2022/11/22 00:53:32;;;;;;;5.23;2.80;;;;;;;;;;5010481;28;21032;-48
2022/11/22 00:55:58;;;;;;;4.20;2.50;;;;;;;;;;5003012;28;20439;-48
2022/11/22 00:58:24;;;;;;;2.10;2.00;;;;;;;;;;5003877;28;20428;-48
2022/11/22 01:00:50;;;;;;;5.10;2.20;;;;;;;;;;5002617;28;20413;-48
2022/11/22 01:03:16;;;;;;;2.40;1.90;;;;;;;;;;5008651;28;20543;-48
2022/11/22 01:05:42;;;;;;;2.47;1.97;;;;;;;;;;5004298;28;20952;-48
2022/11/22 01:08:08;;;;;;;7.70;2.53;;;;;;;;;;5000640;28;20498;-48
2022/11/22 01:10:35;;;;;;;2.97;2.37;;;;;;;;;;5002690;28;20914;-48
2022/11/22 01:13:01;;;;;;;2.50;2.30;;;;;;;;;;5002632;28;20458;-48
2022/11/22 01:15:27;;;;;;;2.90;1.93;;;;;;;;;;5005785;28;20986;-48
2022/11/22 01:17:53;;;;;;;2.93;2.73;;;;;;;;;;5005092;28;20413;-48
2022/11/22 01:20:19;;;;;;;3.53;2.40;;;;;;;;;;5006684;28;20802;-48
2022/11/22 01:22:45;;;;;;;4.20;2.40;;;;;;;;;;5002468;28;20886;-48
2022/11/22 01:25:11;;;;;;;2.73;2.30;;;;;;;;;;4998719;28;20430;-48
2022/11/22 01:27:37;;;;;;;3.97;2.30;;;;;;;;;;5005818;28;20426;-48
2022/11/22 01:30:03;;;;;;;5.53;2.40;;;;;;;;;;5003497;28;20860;-48
2022/11/22 01:32:29;;;;;;;2.87;2.37;;;;;;;;;;5005542;28;20442;-48
2022/11/22 01:34:55;;;;;;;6.30;3.10;;;;;;;;;;5006836;28;20461;-48
2022/11/22 01:37:21;;;;;;;3.30;2.60;;;;;;;;;;5010329;28;20423;-48
2022/11/22 01:39:47;;;;;;;3.77;2.47;;;;;;;;;;5001088;28;20450;-48
2022/11/22 01:42:13;;;;;;;7.57;2.47;;;;;;;;;;5003653;28;20470;-48
2022/11/22 01:44:40;;;;;;;3.17;3.03;;;;;;;;;;5005048;28;20408;-48
2022/11/22 01:47:10;;;;;;;2.47;2.30;;;;;;;;;;5001643;28;20931;-48
2022/11/22 01:49:42;;;;;;;4.67;2.87;;;;;;;;;;5005234;28;20435;-48
2022/11/22 01:52:18;;;;;;;5.10;2.90;;;;;;;;;;5005237;28;20889;-48
2022/11/22 01:54:46;;;;;;;3.90;3.00;;;;;;;;;;4996019;28;20674;-48
2022/11/22 01:57:14;;;;;;;3.03;2.73;;;;;;;;;;5003071;28;20417;-48
2022/11/22 01:59:43;;;;;;;4.13;3.00;;;;;;;;;;5006435;28;20503;-48
2022/11/22 02:02:11;;;;;;;11.60;3.40;;;;;;;;;;5008790;28;20427;-48
2022/11/22 02:04:39;;;;;;;4.80;2.77;;;;;;;;;;5000488;28;20408;-48
2022/11/22 02:07:15;;;;;;;4.23;2.97;;;;;;;;;;5003708;28;20423;-48
2022/11/22 02:09:41;;;;;;;3.23;2.70;;;;;;;;;;5004105;28;20917;-48
2022/11/22 02:12:08;;;;;;;3.57;2.77;;;;;;;;;;5002478;28;20412;-48
2022/11/22 02:14:34;;;;;;;3.17;2.70;;;;;;;;;;5004775;28;20953;-48
2022/11/22 02:17:00;;;;;;;3.73;2.90;;;;;;;;;;5001545;28;20432;-48
2022/11/22 02:19:32;;;;;;;3.90;3.10;;;;;;;;;;5004430;28;20984;-49
2022/11/22 02:22:01;;;;;;;4.73;2.90;;;;;;;;;;5001693;28;20923;-48
2022/11/22 02:24:35;;;;;;;6.53;2.90;;;;;;;;;;5001423;28;20946;-48
2022/11/22 02:27:01;;;;;;;4.77;3.70;;;;;;;;;;5007261;28;20426;-48
2022/11/22 02:29:28;;;;;;;4.43;2.70;;;;;;;;;;4997542;28;20436;-49
2022/11/22 02:31:54;;;;;;;4.40;2.57;;;;;;;;;;4999409;28;20489;-48
2022/11/22 02:34:20;;;;;;;8.13;3.10;;;;;;;;;;5002350;28;20468;-49
2022/11/22 02:36:48;;;;;;;4.10;2.67;;;;;;;;;;5002771;28;20412;-48
2022/11/22 02:39:15;;;;;;;4.60;2.40;;;;;;;;;;5004195;28;20413;-48
2022/11/22 02:41:41;;;;;;;4.00;2.70;;;;;;;;;;5006512;28;20506;-48
2022/11/22 02:44:09;;;;;;;3.63;2.70;;;;;;;;;;5003615;28;20542;-48
2022/11/22 02:46:35;;;;;;;2.47;2.27;;;;;;;;;;4997102;28;20419;-48
2022/11/22 02:49:01;;;;;;;6.43;2.40;;;;;;;;;;5004307;28;20413;-48
2022/11/22 02:51:27;;;;;;;4.10;3.07;;;;;;;;;;5003912;28;20960;-48
2022/11/22 02:53:53;;;;;;;3.03;2.50;;;;;;;;;;5003642;28;20540;-48
2022/11/22 02:56:19;;;;;;;3.77;2.30;;;;;;;;;;5002766;28;20879;-48
2022/11/22 02:58:45;;;;;;;5.90;2.93;;;;;;;;;;5003255;28;20414;-48
2022/11/22 03:01:12;;;;;;;6.17;3.40;;;;;;;;;;5001654;28;21056;-48
2022/11/22 03:03:38;;;;;;;4.70;2.80;;;;;;;;;;5004092;28;20440;-48
2022/11/22 03:06:04;;;;;;;2.97;2.67;;;;;;;;;;5001554;28;20924;-49
2022/11/22 03:08:30;;;;;;;2.83;2.57;;;;;;;;;;5003941;28;20413;-48
2022/11/22 03:10:59;;;;;;;5.57;2.93;;;;;;;;;;5001103;28;21125;-48
2022/11/22 03:13:25;;;;;;;3.90;2.43;;;;;;;;;;5003344;28;20431;-48
2022/11/22 03:15:51;;;;;;;10.70;3.33;;;;;;;;;;5005363;28;20404;-48
2022/11/22 03:18:17;;;;;;;9.20;3.20;;;;;;;;;;5001957;28;20418;-48
2022/11/22 03:20:43;;;;;;;5.13;3.60;;;;;;;;;;5000131;28;20471;-48
2022/11/22 03:23:09;;;;;;;8.07;3.03;;;;;;;;;;5006657;28;20455;-48
2022/11/22 03:25:38;;;;;;;3.37;3.03;;;;;;;;;;5001300;28;20471;-48
2022/11/22 03:28:04;;;;;;;3.93;2.57;;;;;;;;;;5002303;28;20764;-49
2022/11/22 03:30:30;;;;;;;2.70;2.50;;;;;;;;;;5001369;28;20414;-48
2022/11/22 03:32:56;;;;;;;6.20;2.90;;;;;;;;;;5000374;28;20460;-48
2022/11/22 03:35:21;;;;;;;5.07;2.77;;;;;;;;;;5002720;28;20831;-48
2022/11/22 03:37:47;;;;;;;5.50;3.00;;;;;;;;;;5004107;28;20926;-48
2022/11/22 03:40:13;;;;;;;5.73;2.63;;;;;;;;;;5004858;28;20413;-48
2022/11/22 03:42:39;;;;;;;6.73;2.83;;;;;;;;;;4995008;28;20524;-48
2022/11/22 03:45:06;;;;;;;4.73;3.17;;;;;;;;;;5000481;28;20757;-48
2022/11/22 03:47:32;;;;;;;7.20;2.87;;;;;;;;;;5007598;28;20958;-48
2022/11/22 03:49:58;;;;;;;11.67;4.80;;;;;;;;;;4998464;28;20512;-48
2022/11/22 03:52:23;;;;;;;4.90;2.87;;;;;;;;;;4999859;28;20437;-48
2022/11/22 03:54:49;;;;;;;5.77;2.63;;;;;;;;;;4999939;28;20465;-48
2022/11/22 03:57:16;;;;;;;7.17;3.50;;;;;;;;;;4997162;28;20414;-48
2022/11/22 03:59:42;;;;;;;4.93;3.30;;;;;;;;;;5003338;28;20505;-48
2022/11/22 04:02:08;;;;;;;5.53;3.73;;;;;;;;;;4994978;28;20436;-48
2022/11/22 04:04:34;;;;;;;6.13;2.70;;;;;;;;;;5003519;28;20853;-48
2022/11/22 04:07:00;;;;;;;3.30;2.93;;;;;;;;;;4999539;28;21065;-48
2022/11/22 04:09:27;;;;;;;6.77;2.93;;;;;;;;;;5003210;28;20416;-48
2022/11/22 04:11:52;;;;;;;10.80;3.40;;;;;;;;;;4996574;28;20928;-48
2022/11/22 04:17:03;;;;;;;5.03;3.00;;;;;;;;;;5001294;28;20536;-48
2022/11/22 04:19:29;;;;;;;12.83;3.60;;;;;;;;;;5006351;28;20491;-48
2022/11/22 04:21:55;;;;;;;11.37;2.80;;;;;;;;;;5003469;28;20408;-48
2022/11/22 04:27:05;;;;;;;11.43;3.53;;;;;;;;;;4996922;28;20851;-48
2022/11/22 04:29:31;;;;;;;7.67;2.67;;;;;;;;;;4999456;28;20420;-48
2022/11/22 04:34:42;;;;;;;8.77;2.87;;;;;;;;;;4997118;28;20455;-48
2022/11/22 04:37:08;;;;;;;7.67;3.20;;;;;;;;;;5003978;28;20401;-48
2022/11/22 04:39:34;;;;;;;8.00;3.10;;;;;;;;;;5005878;28;20475;-48
2022/11/22 04:44:44;;;;;;;9.73;3.27;;;;;;;;;;5008490;23;20522;-43
2022/11/22 04:47:11;;;;;;;12.43;3.40;;;;;;;;;;4995051;28;20408;-45
2022/11/22 04:49:37;;;;;;;7.03;3.10;;;;;;;;;;4994911;28;20409;-45
2022/11/22 04:54:48;;;;;;;6.87;3.00;;;;;;;;;;4997765;28;20852;-45
2022/11/22 04:57:14;;;;;;;4.67;2.50;;;;;;;;;;5003311;28;20415;-44
2022/11/22 04:59:40;;;;;;;8.27;2.57;;;;;;;;;;5003017;28;20760;-44
2022/11/22 05:02:06;;;;;;;10.53;2.80;;;;;;;;;;5003205;28;20500;-44
2022/11/22 05:04:32;;;;;;;8.63;3.63;;;;;;;;;;5007516;28;20435;-44
2022/11/22 05:06:58;;;;;;;4.20;2.30;;;;;;;;;;5005941;28;20916;-45
2022/11/22 05:09:24;;;;;;;8.07;3.00;;;;;;;;;;5000072;28;20436;-44
2022/11/22 05:11:50;;;;;;;8.33;2.80;;;;;;;;;;4999988;28;20422;-43
2022/11/22 05:14:16;;;;;;;11.38;4.15;;;;;;;;;;5004382;28;20463;-44
2022/11/22 05:16:42;;;;;;;13.63;3.17;;;;;;;;;;5006136;28;20526;-44
2022/11/22 05:19:08;;;;;;;10.73;3.17;;;;;;;;;;5003352;28;20403;-43
2022/11/22 05:21:36;;;;;;;10.57;2.50;;;;;;;;;;5005501;28;20415;-44
2022/11/22 05:24:02;;;;;;;5.70;2.67;;;;;;;;;;5004622;28;20515;-45
2022/11/22 05:26:33;;;;;;;4.83;2.43;;;;;;;;;;4998260;28;20422;-44
2022/11/22 05:29:02;;;;;;;10.70;2.80;;;;;;;;;;5006006;28;20400;-43
2022/11/22 05:31:28;;;;;;;7.95;3.03;;;;;;;;;;5002938;28;20230;-43
2022/11/22 05:33:55;;;;;;;10.47;2.80;;;;;;;;;;5002365;28;20229;-44
2022/11/22 05:36:21;;;;;;;8.27;2.83;;;;;;;;;;5004319;28;20823;-44
2022/11/22 05:38:47;;;;;;;8.70;2.67;;;;;;;;;;5002424;28;20908;-44
2022/11/22 05:41:14;;;;;;;4.63;2.70;;;;;;;;;;5002346;28;20419;-44
2022/11/22 05:43:40;;;;;;;6.97;2.90;;;;;;;;;;5000996;28;20463;-44
2022/11/22 05:46:06;;;;;;;6.73;2.30;;;;;;;;;;5007487;28;20180;-43
2022/11/22 05:48:32;;;;;;;4.37;2.63;;;;;;;;;;5001828;28;20789;-44
2022/11/22 05:50:58;;;;;;;11.83;3.20;;;;;;;;;;4999955;28;20424;-44
2022/11/22 05:53:24;;;;;;;5.57;2.20;;;;;;;;;;5002477;28;20438;-44
2022/11/22 05:55:50;;;;;;;10.57;2.50;;;;;;;;;;5002100;28;20396;-45
2022/11/22 05:58:16;;;;;;;6.53;2.80;;;;;;;;;;5003681;28;20408;-43
2022/11/22 06:00:42;;;;;;;9.70;2.73;;;;;;;;;;5005278;28;20416;-44
2022/11/22 06:03:08;;;;;;;10.23;3.10;;;;;;;;;;5005516;28;20426;-44
2022/11/22 06:05:33;;;;;;;8.47;2.77;;;;;;;;;;5000015;28;20419;-43
2022/11/22 06:08:01;;;;;;;3.67;3.20;;;;;;;;;;4998055;28;20439;-44
2022/11/22 06:10:27;;;;;;;3.75;2.10;;;;;;;;;;5004795;28;20809;-45
2022/11/22 06:12:53;;;;;;;6.97;2.43;;;;;;;;;;5001921;28;20205;-43
2022/11/22 06:15:19;;;;;;;6.53;3.03;;;;;;;;;;5003893;28;20498;-43
2022/11/22 06:17:45;;;;;;;8.02;2.50;;;;;;;;;;5003182;28;20423;-44
2022/11/22 06:20:11;;;;;;;12.20;2.63;;;;;;;;;;5003608;28;20541;-44
2022/11/22 06:22:37;;;;;;;10.02;3.08;;;;;;;;;;4998349;28;20909;-43
2022/11/22 06:25:03;;;;;;;5.80;3.10;;;;;;;;;;5004704;28;20198;-46
2022/11/22 06:27:29;;;;;;;10.88;3.10;;;;;;;;;;5002177;28;20418;-44
2022/11/22 06:29:55;;;;;;;6.37;2.97;;;;;;;;;;5001446;28;20328;-44
2022/11/22 06:32:21;;;;;;;8.00;3.10;;;;;;;;;;5003377;28;20798;-44
2022/11/22 06:34:47;;;;;;;8.40;2.97;;;;;;;;;;5001284;28;20628;-45
2022/11/22 06:37:16;;;;;;;18.37;2.90;;;;;;;;;;5001825;28;20851;-44
2022/11/22 06:39:42;;;;;;;10.52;2.40;;;;;;;;;;5001019;28;20412;-45
2022/11/22 06:42:07;;;;;;;13.13;3.03;;;;;;;;;;5006452;28;20185;-44
2022/11/22 06:44:33;;;;;;;4.80;2.93;;;;;;;;;;5000928;28;20549;-44
2022/11/22 06:46:59;;;;;;;9.60;3.03;;;;;;;;;;4999060;28;20416;-45
2022/11/22 06:49:25;;;;;;;11.63;2.80;;;;;;;;;;5001542;28;21018;-44
2022/11/22 06:51:51;;;;;;;10.17;3.07;;;;;;;;;;5000785;28;20404;-44
2022/11/22 06:54:17;;;;;;;8.80;2.87;;;;;;;;;;5002344;28;20472;-43
2022/11/22 06:56:43;;;;;;;8.40;3.17;;;;;;;;;;5004472;28;20450;-44
2022/11/22 06:59:09;;;;;;;18.07;3.40;;;;;;;;;;5004580;28;20411;-43
2022/11/22 07:01:36;;;;;;;6.43;3.17;;;;;;;;;;4999098;28;20415;-44
2022/11/22 07:04:02;;;;;;;8.60;2.80;;;;;;;;;;4996822;28;20276;-44
2022/11/22 07:06:29;;;;;;;8.77;3.00;;;;;;;;;;5004130;28;20736;-43
2022/11/22 07:08:55;;;;;;;9.27;3.00;;;;;;;;;;5002537;28;20181;-44
2022/11/22 07:11:26;;;;;;;8.13;2.83;;;;;;;;;;5002715;28;20169;-44
2022/11/22 07:13:53;;;;;;;5.00;2.92;;;;;;;;;;5001150;28;20515;-44
2022/11/22 07:16:20;;;;;;;12.80;3.40;;;;;;;;;;5002883;28;20541;-43
2022/11/22 07:18:46;;;;;;;5.50;2.50;;;;;;;;;;4998969;28;20191;-44
2022/11/22 07:21:20;;;;;;;10.07;2.85;;;;;;;;;;5002358;28;20415;-44
2022/11/22 07:23:47;;;;;;;4.75;2.72;;;;;;;;;;5003939;28;20204;-43
2022/11/22 07:26:14;;;;;;;27.13;3.60;;;;;;;;;;4999760;28;20709;-43
2022/11/22 07:28:40;;;;;;;10.15;2.40;;;;;;;;;;5001364;28;20172;-44
2022/11/22 07:31:07;;;;;;;16.25;3.15;;;;;;;;;;5000522;28;20173;-44
2022/11/22 07:33:33;;;;;;;9.45;2.55;;;;;;;;;;5000432;28;20635;-45
2022/11/22 07:36:06;;;;;;;3.33;2.60;;;;;;;;;;5000266;28;20281;-45
2022/11/22 07:38:32;;;;;;;10.82;2.55;;;;;;;;;;4995284;28;20413;-43
2022/11/22 07:40:58;;;;;;;10.93;2.65;;;;;;;;;;5003575;28;20187;-43
2022/11/22 07:43:24;;;;;;;8.90;3.13;;;;;;;;;;4997721;28;20261;-43
2022/11/22 07:45:50;;;;;;;14.10;3.20;;;;;;;;;;4998145;28;20189;-43
2022/11/22 07:48:16;;;;;;;4.57;2.63;;;;;;;;;;5002019;28;20451;-44
2022/11/22 07:50:42;;;;;;;8.40;2.67;;;;;;;;;;5001153;28;20415;-44
2022/11/22 07:53:09;;;;;;;6.33;3.43;;;;;;;;;;4998971;28;20440;-43
2022/11/22 07:55:35;;;;;;;6.37;3.13;;;;;;;;;;5003259;28;20968;-44
2022/11/22 07:58:01;;;;;;;7.40;2.77;;;;;;;;;;5002465;28;20423;-43
2022/11/22 08:00:28;;;;;;;16.70;2.75;;;;;;;;;;4996027;28;20461;-43
2022/11/22 08:02:54;;;;;;;8.75;2.60;;;;;;;;;;5003379;28;20594;-44
2022/11/22 08:05:20;;;;;;;10.35;2.47;;;;;;;;;;5001401;28;20192;-44
2022/11/22 08:07:49;;;;;;;9.47;2.67;;;;;;;;;;5005575;28;20172;-43
2022/11/22 08:10:16;;;;;;;9.57;2.73;;;;;;;;;;5005388;28;20984;-43
2022/11/22 08:12:42;;;;;;;12.47;2.50;;;;;;;;;;5004122;28;20420;-43
2022/11/22 08:15:08;;;;;;;7.50;3.00;;;;;;;;;;5004533;28;20513;-46
2022/11/22 08:17:37;;;;;;;9.90;2.65;;;;;;;;;;5003715;28;20449;-44
2022/11/22 08:20:03;;;;;;;10.23;2.60;;;;;;;;;;5009337;28;20170;-43
2022/11/22 08:22:29;;;;;;;5.67;2.60;;;;;;;;;;4995038;28;20786;-43
2022/11/22 08:24:55;;;;;;;14.30;2.80;;;;;;;;;;5002458;28;20494;-44
2022/11/22 08:27:21;;;;;;;5.77;2.30;;;;;;;;;;5004513;28;20906;-45
2022/11/22 08:29:47;;;;;;;9.50;2.43;;;;;;;;;;5003449;28;20946;-43
2022/11/22 08:32:12;;;;;;;9.20;3.10;;;;;;;;;;5004531;28;20795;-43
2022/11/22 08:34:38;;;;;;;6.13;2.10;;;;;;;;;;5007970;28;20829;-43
2022/11/22 08:37:04;;;;;;;5.03;2.70;;;;;;;;;;5007500;28;20466;-43
2022/11/22 08:39:30;;;;;;;7.90;2.53;;;;;;;;;;5001473;28;20427;-43
2022/11/22 08:41:58;;;;;;;9.37;3.23;;;;;;;;;;5000202;28;20925;-43
2022/11/22 08:44:24;;;;;;;5.30;2.27;;;;;;;;;;5005729;28;21248;-43
2022/11/22 08:46:50;;;;;;;8.13;2.60;;;;;;;;;;5006025;28;20492;-44
2022/11/22 08:49:16;;;;;;;5.70;2.73;;;;;;;;;;5004834;28;20417;-43
2022/11/22 08:51:46;;;;;;;4.27;2.20;;;;;;;;;;5005452;28;20424;-45
2022/11/22 08:54:13;;;;;;;6.33;2.40;;;;;;;;;;5005539;28;20464;-43
2022/11/22 08:56:39;;;;;;;3.43;2.30;;;;;;;;;;4997049;28;20452;-45
2022/11/22 08:59:06;;;;;;;8.80;2.60;;;;;;;;;;5009961;28;20499;-43
2022/11/22 09:01:32;;;;;;;11.30;3.40;;;;;;;;;;5017716;28;20459;-43
2022/11/22 09:03:58;;;;;;;4.17;2.33;;;;;;;;;;5002815;28;20442;-43
2022/11/22 09:06:24;;;;;;;14.80;4.07;;;;;;;;;;5005347;28;20520;-44
2022/11/22 09:08:51;;;;;;;8.10;2.50;;;;;;;;;;5002829;28;20470;-43
2022/11/22 09:11:19;;;;;;;5.50;2.10;;;;;;;;;;5001101;28;20409;-43
2022/11/22 09:13:46;;;;;;;8.40;2.07;;;;;;;;;;5003045;28;20526;-43
2022/11/22 09:16:13;;;;;;;4.87;2.70;;;;;;;;;;5008435;28;20420;-44
2022/11/22 09:18:40;;;;;;;3.97;2.20;;;;;;;;;;5003594;28;20509;-43
2022/11/22 09:21:08;;;;;;;6.60;2.00;;;;;;;;;;5000100;28;20421;-43
2022/11/22 09:23:34;;;;;;;7.37;1.90;;;;;;;;;;5003780;28;20483;-44
2022/11/22 09:26:06;;;;;;;21.50;3.90;;;;;;;;;;5002423;28;20893;-43
2022/11/22 09:28:32;;;;;;;6.40;2.10;;;;;;;;;;4999028;28;20412;-43
2022/11/22 09:31:02;;;;;;;10.43;2.30;;;;;;;;;;5001977;28;20880;-44
2022/11/22 09:33:28;;;;;;;4.73;2.10;;;;;;;;;;5006195;28;20775;-44
2022/11/22 09:36:01;;;;;;;8.83;2.13;;;;;;;;;;5003778;28;20426;-44
2022/11/22 09:38:27;;;;;;;4.30;2.50;;;;;;;;;;5002590;28;20704;-44
2022/11/22 09:40:53;;;;;;;4.53;2.57;;;;;;;;;;5004758;28;21002;-43
2022/11/22 09:43:19;;;;;;;6.23;2.10;;;;;;;;;;5002767;28;20808;-43
2022/11/22 09:45:45;;;;;;;8.77;2.17;;;;;;;;;;5003955;28;20415;-43
2022/11/22 09:48:26;;;;;;;5.90;2.13;;;;;;;;;;5006465;28;20834;-44
2022/11/22 09:51:14;;;;;;;6.80;2.20;;;;;;;;;;4996471;28;20439;-43
2022/11/22 09:53:47;;;;;;;6.53;2.00;;;;;;;;;;4998007;28;20782;-44
2022/11/22 09:56:15;;;;;;;9.40;2.60;;;;;;;;;;5008252;28;20443;-44
2022/11/22 09:58:50;;;;;;;12.00;4.93;;;;;;;;;;5001332;28;20502;-43
2022/11/22 10:01:28;;;;;;;3.73;1.90;;;;;;;;;;5005701;28;20409;-44
2022/11/22 10:04:01;;;;;;;8.13;1.87;;;;;;;;;;5002785;28;20501;-44
2022/11/22 10:06:31;;;;;;;4.40;2.23;;;;;;;;;;4997772;28;20483;-44
2022/11/22 10:09:03;;;;;;;7.43;2.40;;;;;;;;;;5010295;28;20454;-44
2022/11/22 10:11:34;;;;;;;8.30;3.30;;;;;;;;;;5000087;28;20476;-44
2022/11/22 10:14:02;;;;;;;6.23;2.23;;;;;;;;;;5002957;28;20552;-43
2022/11/22 10:16:38;;;;;;;10.03;2.10;;;;;;;;;;5003946;28;20929;-43
2022/11/22 10:19:16;;;;;;;4.37;2.10;;;;;;;;;;5001165;28;20430;-43
2022/11/22 10:21:42;;;;;;;4.47;2.13;;;;;;;;;;4994797;28;20455;-44
2022/11/22 10:24:12;;;;;;;9.50;2.70;;;;;;;;;;5001714;28;20515;-43
2022/11/22 10:26:39;;;;;;;9.13;2.23;;;;;;;;;;5005795;28;20421;-44
2022/11/22 10:29:10;;;;;;;5.60;1.93;;;;;;;;;;5004855;28;20412;-43
2022/11/22 10:31:40;;;;;;;7.80;2.17;;;;;;;;;;5000265;28;20506;-46
2022/11/22 10:34:18;;;;;;;6.30;1.87;;;;;;;;;;5003445;28;20464;-46
2022/11/22 10:36:49;;;;;;;8.40;2.30;;;;;;;;;;5004100;28;20415;-43
2022/11/22 10:39:19;;;;;;;4.27;2.23;;;;;;;;;;5002314;28;20423;-45
2022/11/22 10:41:56;;;;;;;6.67;2.40;;;;;;;;;;5003276;28;20418;-43
2022/11/22 10:44:37;;;;;;;3.50;1.93;;;;;;;;;;5003340;28;20529;-43
2022/11/22 10:47:03;;;;;;;4.73;2.10;;;;;;;;;;4997456;28;20957;-47
2022/11/22 10:49:39;;;;;;;5.63;2.23;;;;;;;;;;5002074;28;20416;-44
2022/11/22 10:52:23;;;;;;;10.90;2.30;;;;;;;;;;5000844;28;20418;-44
2022/11/22 10:55:08;;;;;;;5.80;1.97;;;;;;;;;;5004083;28;20478;-44
2022/11/22 10:57:46;;;;;;;3.70;1.83;;;;;;;;;;4999154;28;20404;-44
2022/11/22 11:00:26;;;;;;;4.10;1.73;;;;;;;;;;5002511;28;20401;-44
2022/11/22 11:03:02;;;;;;;2.23;2.00;;;;;;;;;;5000439;28;20504;-44
2022/11/22 11:05:41;;;;;;;6.47;1.80;;;;;;;;;;5000612;28;20414;-44
2022/11/22 11:08:10;;;;;;;6.20;2.00;;;;;;;;;;5006284;28;20411;-44
2022/11/22 11:10:36;;;;;;;4.77;1.97;;;;;;;;;;5000489;28;20411;-46
2022/11/22 11:13:04;;;;;;;6.80;1.70;;;;;;;;;;5002585;28;20489;-45
2022/11/22 11:15:34;;;;;;;2.67;1.70;;;;;;;;;;4992950;28;20463;-45
2022/11/22 11:18:02;;;;;;;8.00;2.30;;;;;;;;;;4999182;28;20434;-45
2022/11/22 11:20:30;;;;;;;5.10;1.57;;;;;;;;;;5003486;28;20415;-44
2022/11/22 11:22:56;;;;;;;3.50;2.00;;;;;;;;;;5007919;28;20438;-44
2022/11/22 11:25:32;;;;;;;7.63;2.17;;;;;;;;;;5000872;28;20412;-46
2022/11/22 11:28:18;;;;;;;7.50;2.17;;;;;;;;;;4995384;28;20409;-44
2022/11/22 11:30:46;;;;;;;6.20;1.90;;;;;;;;;;4987638;28;20786;-45
2022/11/22 11:33:18;;;;;;;2.43;1.43;;;;;;;;;;5001454;28;21057;-45
2022/11/22 11:35:46;;;;;;;5.60;1.83;;;;;;;;;;5005540;28;20831;-44
2022/11/22 11:38:27;;;;;;;2.97;1.70;;;;;;;;;;5001233;28;20760;-45
2022/11/22 11:40:53;;;;;;;3.50;1.70;;;;;;;;;;5001154;28;20399;-44
2022/11/22 11:43:20;;;;;;;4.27;1.77;;;;;;;;;;5005330;28;20451;-45
2022/11/22 11:45:46;;;;;;;6.87;1.97;;;;;;;;;;5004067;28;20750;-45
2022/11/22 11:48:24;;;;;;;4.50;1.70;;;;;;;;;;4998036;28;20424;-44
2022/11/22 11:50:52;;;;;;;4.03;1.83;;;;;;;;;;5007467;28;20430;-45
2022/11/22 11:53:24;;;;;;;3.93;1.60;;;;;;;;;;5003774;28;20413;-44
2022/11/22 11:55:50;;;;;;;6.13;2.00;;;;;;;;;;5007515;28;20557;-44
2022/11/22 11:58:20;;;;;;;5.50;1.60;;;;;;;;;;5000628;28;20408;-45
2022/11/22 12:00:46;;;;;;;2.83;1.23;;;;;;;;;;5001351;28;20426;-44
2022/11/22 12:03:15;;;;;;;3.90;2.17;;;;;;;;;;5004779;28;20980;-45
2022/11/22 12:05:41;;;;;;;5.43;2.50;;;;;;;;;;5006639;28;20885;-44
2022/11/22 12:08:25;;;;;;;3.93;2.37;;;;;;;;;;5003339;28;20475;-44
2022/11/22 12:11:07;;;;;;;4.50;1.80;;;;;;;;;;5003162;28;20478;-44
2022/11/22 12:13:43;;;;;;;3.20;1.47;;;;;;;;;;5001345;28;20450;-44
2022/11/22 12:16:15;;;;;;;2.63;1.40;;;;;;;;;;5005899;28;20514;-44
2022/11/22 12:18:41;;;;;;;1.30;1.13;;;;;;;;;;5003262;28;20939;-44
2022/11/22 12:21:16;;;;;;;2.50;1.43;;;;;;;;;;5006712;28;20411;-43
2022/11/22 12:23:47;;;;;;;4.07;1.80;;;;;;;;;;5003392;28;20447;-45
2022/11/22 12:26:14;;;;;;;4.57;1.40;;;;;;;;;;5000648;28;20409;-44
2022/11/22 12:28:40;;;;;;;1.50;1.30;;;;;;;;;;5001777;28;20418;-43
2022/11/22 12:31:26;;;;;;;3.47;1.40;;;;;;;;;;5003473;28;20429;-43
2022/11/22 12:33:54;;;;;;;3.97;1.37;;;;;;;;;;5004529;28;20440;-43
2022/11/22 12:36:22;;;;;;;2.17;1.50;;;;;;;;;;5005626;28;20497;-43
2022/11/22 12:38:50;;;;;;;3.00;1.53;;;;;;;;;;5004899;28;20421;-43
2022/11/22 12:41:17;;;;;;;3.23;1.50;;;;;;;;;;5004042;28;20446;-43
2022/11/22 12:43:52;;;;;;;1.63;1.07;;;;;;;;;;4998811;28;20455;-43
2022/11/22 12:46:20;;;;;;;5.93;1.37;;;;;;;;;;5003341;28;20410;-45
2022/11/22 12:48:53;;;;;;;1.40;1.30;;;;;;;;;;5004461;28;20558;-44
2022/11/22 12:51:37;;;;;;;6.10;1.50;;;;;;;;;;5000655;28;20449;-44
2022/11/22 12:54:06;;;;;;;2.57;1.60;;;;;;;;;;4999781;28;21008;-47
2022/11/22 12:56:40;;;;;;;3.77;1.40;;;;;;;;;;5002004;28;20787;-42
2022/11/22 12:59:05;;;;;;;3.00;1.40;;;;;;;;;;5006458;28;20423;-43
2022/11/22 13:01:32;;;;;;;6.60;1.60;;;;;;;;;;5006090;28;20411;-42
2022/11/22 13:04:01;;;;;;;2.97;1.30;;;;;;;;;;5008082;28;20450;-43
2022/11/22 13:06:32;;;;;;;2.80;1.67;;;;;;;;;;4996381;28;20431;-46
2022/11/22 13:09:00;;;;;;;1.97;1.43;;;;;;;;;;5001289;28;20795;-45
2022/11/22 13:11:31;;;;;;;2.73;1.50;;;;;;;;;;4997435;28;20430;-48
2022/11/22 13:14:04;;;;;;;2.97;1.50;;;;;;;;;;5007189;28;20502;-43
2022/11/22 13:16:31;;;;;;;2.10;1.30;;;;;;;;;;4995541;28;20407;-42
2022/11/22 13:19:04;;;;;;;2.97;1.53;;;;;;;;;;5002096;28;20502;-44
2022/11/22 13:21:59;;;;;;;1.97;1.40;;;;;;;;;;4994718;28;20518;-44
2022/11/22 13:24:39;;;;;;;3.10;1.73;;;;;;;;;;5006601;28;20438;-44
2022/11/22 13:27:08;;;;;;;6.23;1.93;;;;;;;;;;5002579;28;20412;-45
2022/11/22 13:29:34;;;;;;;3.13;1.80;;;;;;;;;;5008022;28;20937;-43
2022/11/22 13:32:00;;;;;;;2.90;1.60;;;;;;;;;;5002143;28;20442;-43
2022/11/22 13:34:27;;;;;;;3.53;1.50;;;;;;;;;;5005614;28;20884;-42
2022/11/22 13:36:53;;;;;;;1.87;1.47;;;;;;;;;;5002688;28;20411;-43
2022/11/22 13:39:21;;;;;;;5.50;1.60;;;;;;;;;;4997682;28;20443;-43
2022/11/22 13:42:08;;;;;;;3.57;1.50;;;;;;;;;;5006998;28;20443;-43
2022/11/22 13:44:38;;;;;;;5.63;1.63;;;;;;;;;;4996436;28;20546;-43
2022/11/22 13:47:06;;;;;;;2.77;1.60;;;;;;;;;;5000690;28;20482;-44
2022/11/22 13:49:32;;;;;;;1.50;1.40;;;;;;;;;;5008842;28;21089;-43
2022/11/22 13:52:00;;;;;;;2.70;1.70;;;;;;;;;;5001658;28;20420;-43
2022/11/22 13:54:31;;;;;;;1.27;1.17;;;;;;;;;;5002022;28;20530;-44
2022/11/22 13:57:16;;;;;;;2.70;1.40;;;;;;;;;;5001713;28;20451;-45
2022/11/22 13:59:43;;;;;;;4.33;1.40;;;;;;;;;;4995423;28;20542;-43
2022/11/22 14:02:23;;;;;;;2.33;2.10;;;;;;;;;;5004129;28;20415;-43
2022/11/22 14:04:54;;;;;;;3.67;1.80;;;;;;;;;;4999016;28;20434;-43
2022/11/22 14:07:23;;;;;;;3.13;1.50;;;;;;;;;;4997181;28;20468;-43
2022/11/22 14:09:51;;;;;;;1.70;1.47;;;;;;;;;;5004855;28;20407;-44
2022/11/22 14:12:26;;;;;;;2.13;1.87;;;;;;;;;;5001661;28;20440;-44
2022/11/22 14:15:14;;;;;;;4.60;1.90;;;;;;;;;;5001595;28;20466;-45
2022/11/22 14:17:40;;;;;;;3.67;1.60;;;;;;;;;;4994925;28;20412;-43
2022/11/22 14:20:14;;;;;;;3.17;2.10;;;;;;;;;;5002622;28;20770;-46
2022/11/22 14:22:56;;;;;;;6.97;2.10;;;;;;;;;;4994469;28;20413;-42
2022/11/22 14:25:34;;;;;;;2.00;1.80;;;;;;;;;;5001823;28;20443;-43
2022/11/22 14:28:18;;;;;;;3.13;1.50;;;;;;;;;;5001228;28;20445;-44
2022/11/22 14:30:44;;;;;;;1.60;1.30;;;;;;;;;;4999328;28;20470;-44
2022/11/22 14:33:15;;;;;;;4.30;1.70;;;;;;;;;;5003080;28;20822;-43
2022/11/22 14:35:59;;;;;;;6.53;1.60;;;;;;;;;;4998399;28;20463;-43
2022/11/22 14:38:27;;;;;;;2.50;1.57;;;;;;;;;;5001195;28;20475;-42
2022/11/22 14:41:13;;;;;;;2.63;1.33;;;;;;;;;;5004870;28;20418;-43
2022/11/22 14:43:40;;;;;;;3.70;1.50;;;;;;;;;;4992350;28;20872;-43
2022/11/22 14:46:11;;;;;;;3.03;1.67;;;;;;;;;;5001213;28;20509;-43
2022/11/22 14:48:43;;;;;;;2.80;1.40;;;;;;;;;;5000232;28;20797;-43
2022/11/22 14:51:19;;;;;;;1.93;1.83;;;;;;;;;;5001275;28;20418;-45
2022/11/22 14:53:48;;;;;;;3.73;1.80;;;;;;;;;;5001022;28;20458;-44
2022/11/22 14:56:19;;;;;;;3.90;1.87;;;;;;;;;;5001981;28;20424;-44
2022/11/22 14:59:00;;;;;;;1.60;1.50;;;;;;;;;;5002223;28;20498;-43
2022/11/22 15:01:41;;;;;;;2.63;1.80;;;;;;;;;;4999767;28;20412;-43
2022/11/22 15:04:31;;;;;;;2.10;1.40;;;;;;;;;;4996174;28;20439;-44